Rockenbach Airport

Jump to: basic info | weather | runways | comments

Related pages: nearby airports | nearby navaids | notams | map

Basic information (top)

Codes: LL97
Location: lon 42.338902, lat -88.084801, elev 800 ft / 244 m msl
Status: small_airport

Weather (top)

Current conditions for Waukegan Regional Airport 11nm (20km) ENE (rec'd 2014/11/26 19:55Z):

KUGN 261955Z 06003KT 7SM OVC026 M02/M06 A3010 RMK AO2 SLP211 T10171056

Airport forecast for Kenosha Regional Airport 17nm (31km) NNE (rec'd 2014/11/26 18:54Z):

TAF KENW 261752Z 2618/2718 VRB03KT 5SM BR BKN035 
     FM262000 VRB03KT P6SM OVC030 
     FM270100 32005KT P6SM BKN045 
     FM271100 31010KT 6SM -SN OVC030 
     FM271400 30012KT P6SM OVC020

Runways (top)

N/S: 2,000 x 100 ft (610 x 30 m) — grass — not lighted

Latest comments (top)

No comments yet for Rockenbach Airport

More... (top)

See also NOTAMs and nearby airports and navaids, or visit the Rockenbach Airport page at the main OurAirports website..